createdAt,value
2024-05-09T03:32:13.641Z,8.77
2024-05-09T03:34:40.646Z,9.04
2024-05-09T03:37:07.682Z,7.98
2024-05-09T03:39:34.659Z,7.81
2024-05-09T03:42:01.610Z,7.68
2024-05-09T03:44:28.660Z,7.32
2024-05-09T03:46:55.713Z,7.71
2024-05-09T03:49:22.936Z,7.78
2024-05-09T03:51:49.910Z,7.45
2024-05-09T03:54:16.880Z,7.37
2024-05-09T03:56:43.990Z,7.10
2024-05-09T03:59:11.038Z,8.16
2024-05-09T04:01:38.114Z,7.95
2024-05-09T04:04:05.148Z,8.39
2024-05-09T04:06:32.172Z,9.65
2024-05-09T04:08:59.141Z,9.14
2024-05-09T04:11:26.174Z,8.26
2024-05-09T04:13:53.271Z,9.39
2024-05-09T04:16:20.371Z,8.18
2024-05-09T04:18:47.422Z,8.10
2024-05-09T04:21:14.463Z,8.07
2024-05-09T04:23:41.510Z,9.25
2024-05-09T04:26:08.638Z,11.35
2024-05-09T04:28:35.677Z,11.51
2024-05-09T04:31:02.646Z,12.63
2024-05-09T04:33:29.831Z,13.54
2024-05-09T04:35:56.959Z,13.35
2024-05-09T04:38:23.971Z,13.54
2024-05-09T04:40:50.996Z,13.44
2024-05-09T04:43:17.960Z,13.08
2024-05-09T04:45:44.912Z,12.99
2024-05-09T04:48:12.123Z,13.38
2024-05-09T04:50:39.982Z,13.96
2024-05-09T04:53:08.149Z,13.39
2024-05-09T04:55:36.628Z,13.63
2024-05-09T04:58:03.663Z,14.26
2024-05-09T05:00:36.350Z,15.36
2024-05-09T05:03:05.281Z,14.88
2024-05-09T05:05:32.534Z,15.07
2024-05-09T05:07:59.637Z,13.93
2024-05-09T05:10:33.778Z,14.14
2024-05-09T05:13:03.532Z,13.93
2024-05-09T05:15:30.524Z,14.80
2024-05-09T05:17:57.648Z,14.36
2024-05-09T05:20:32.539Z,14.91
2024-05-09T05:23:01.052Z,15.00
2024-05-09T05:25:28.202Z,14.34
2024-05-09T05:27:55.171Z,14.13
2024-05-09T05:30:28.735Z,13.53
2024-05-09T05:33:00.247Z,13.32
2024-05-09T05:35:27.467Z,13.40
2024-05-09T05:37:54.471Z,13.18
2024-05-09T05:40:28.518Z,13.37
2024-05-09T05:43:02.673Z,13.82
2024-05-09T05:45:29.728Z,13.92
2024-05-09T05:47:57.023Z,13.74
2024-05-09T05:50:31.924Z,13.69
2024-05-09T05:53:02.642Z,12.90
2024-05-09T05:55:29.664Z,12.94
2024-05-09T05:57:56.706Z,13.02
2024-05-09T06:00:29.962Z,13.46
2024-05-09T06:03:04.442Z,13.04
2024-05-09T06:05:31.719Z,12.88
2024-05-09T06:07:58.830Z,12.37
2024-05-09T06:10:30.265Z,13.58
2024-05-09T06:13:04.440Z,13.82
2024-05-09T06:15:31.416Z,13.47
2024-05-09T06:17:58.621Z,13.69
2024-05-09T06:20:34.680Z,13.58
2024-05-09T06:23:04.408Z,13.25
2024-05-09T06:25:31.705Z,12.92
2024-05-09T06:27:58.733Z,13.57
2024-05-09T06:30:34.437Z,13.43
2024-05-09T06:33:06.070Z,13.52
2024-05-09T06:35:33.646Z,12.91
2024-05-09T06:38:01.366Z,13.52
2024-05-09T06:40:36.447Z,13.14
2024-05-09T06:43:06.002Z,12.56
2024-05-09T06:45:32.970Z,12.67
2024-05-09T06:48:00.207Z,12.68
2024-05-09T06:50:31.136Z,12.68
2024-05-09T06:53:02.835Z,12.85
2024-05-09T06:55:29.842Z,12.87
2024-05-09T06:57:56.786Z,12.82
2024-05-09T07:00:30.737Z,12.33
2024-05-09T07:03:05.978Z,12.21
2024-05-09T07:05:33.356Z,11.97
2024-05-09T07:08:00.546Z,11.12
2024-05-09T07:10:33.104Z,11.63
2024-05-09T07:13:02.425Z,11.95
2024-05-09T07:15:29.449Z,11.94
2024-05-09T07:17:56.592Z,11.64
2024-05-09T07:20:32.175Z,12.08
2024-05-09T07:23:01.981Z,12.17
2024-05-09T07:25:29.198Z,11.19
2024-05-09T07:27:56.307Z,11.10
2024-05-09T07:30:27.939Z,10.94
2024-05-09T07:33:00.602Z,10.32
2024-05-09T07:35:28.049Z,11.23
2024-05-09T07:37:55.086Z,10.97
2024-05-09T07:40:31.611Z,10.93
2024-05-09T07:43:02.486Z,10.37
2024-05-09T07:45:45.697Z,10.44
2024-05-09T07:49:45.434Z,10.14
2024-05-09T07:53:40.926Z,10.25
2024-05-09T07:56:12.372Z,10.28
2024-05-09T07:58:39.727Z,10.48
2024-05-09T08:01:06.999Z,9.72
2024-05-09T08:03:34.454Z,9.81
2024-05-09T08:06:01.641Z,9.62
2024-05-09T08:08:28.649Z,8.91
2024-05-09T08:10:55.689Z,9.17
2024-05-09T08:13:22.949Z,8.84
2024-05-09T08:15:50.091Z,8.60
2024-05-09T08:18:17.200Z,8.56
2024-05-09T08:20:44.254Z,8.55
2024-05-09T08:23:11.246Z,8.15
2024-05-09T08:25:38.208Z,7.50
2024-05-09T08:28:05.292Z,8.07
2024-05-09T08:30:36.874Z,8.01
2024-05-09T08:33:05.964Z,8.52
2024-05-09T08:35:33.789Z,8.41
2024-05-09T08:38:00.443Z,8.22
2024-05-09T08:40:34.064Z,8.08
2024-05-09T08:43:03.058Z,8.48
2024-05-09T08:45:29.924Z,8.54
2024-05-09T08:47:56.794Z,7.99
2024-05-09T08:50:32.165Z,8.55
2024-05-09T08:53:04.813Z,8.73
2024-05-09T08:55:31.377Z,8.50
2024-05-09T08:57:58.037Z,8.74
2024-05-09T09:00:33.780Z,9.47
2024-05-09T09:03:03.662Z,9.00
2024-05-09T09:05:30.417Z,8.44
2024-05-09T09:07:57.055Z,8.30
2024-05-09T09:10:29.820Z,8.39
2024-05-09T09:12:58.792Z,8.22
2024-05-09T09:15:25.420Z,8.43
2024-05-09T09:17:52.216Z,7.49
2024-05-09T09:20:26.194Z,7.65
2024-05-09T09:22:59.919Z,8.46
2024-05-09T09:25:26.537Z,7.81
2024-05-09T09:27:53.146Z,7.53
2024-05-09T09:30:31.687Z,7.84
2024-05-09T09:33:03.619Z,7.72
2024-05-09T09:35:30.250Z,8.72
2024-05-09T09:37:57.225Z,8.48
2024-05-09T09:40:31.058Z,8.44
2024-05-09T09:42:59.671Z,8.51
2024-05-09T09:45:26.660Z,8.27
2024-05-09T09:47:53.768Z,8.24
2024-05-09T09:50:27.561Z,8.29
2024-05-09T09:53:00.511Z,7.92
2024-05-09T09:55:27.537Z,7.93
2024-05-09T09:57:54.568Z,7.83
2024-05-09T10:00:27.116Z,8.01
2024-05-09T10:02:59.359Z,7.43
2024-05-09T10:05:26.763Z,7.34
2024-05-09T10:07:53.984Z,7.60
2024-05-09T10:10:27.333Z,7.17
2024-05-09T10:12:59.002Z,6.89
2024-05-09T10:15:25.967Z,6.81
2024-05-09T10:17:53.156Z,7.02
2024-05-09T10:20:22.223Z,7.49
2024-05-09T10:22:54.698Z,7.47
2024-05-09T10:25:21.813Z,7.06
2024-05-09T10:27:48.914Z,6.85
2024-05-09T10:30:25.296Z,6.51
2024-05-09T10:32:57.355Z,7.36
2024-05-09T10:35:24.381Z,7.14
2024-05-09T10:37:51.325Z,6.83
2024-05-09T10:40:25.827Z,6.56
2024-05-09T10:42:56.386Z,6.63
2024-05-09T10:45:23.422Z,6.57
2024-05-09T10:47:50.456Z,5.99
2024-05-09T10:50:25.063Z,6.49
2024-05-09T10:52:55.592Z,6.17
2024-05-09T10:55:22.806Z,6.21
2024-05-09T10:57:49.974Z,5.65
2024-05-09T11:00:27.038Z,5.71
2024-05-09T11:02:57.530Z,5.39
2024-05-09T11:05:24.650Z,5.30
2024-05-09T11:07:51.683Z,5.27
2024-05-09T11:10:27.108Z,5.20
2024-05-09T11:12:58.941Z,5.41
2024-05-09T11:15:25.990Z,6.15
2024-05-09T11:17:53.192Z,5.92
2024-05-09T11:20:26.879Z,5.43
2024-05-09T11:22:56.789Z,6.28
2024-05-09T11:25:23.838Z,5.62
2024-05-09T11:27:50.858Z,5.00
2024-05-09T11:30:24.321Z,5.54
2024-05-09T11:32:57.067Z,5.25
2024-05-09T11:35:24.106Z,4.87
2024-05-09T11:37:51.038Z,5.40
2024-05-09T11:40:25.216Z,5.54
2024-05-09T11:42:55.490Z,5.07
2024-05-09T11:45:22.513Z,5.21
2024-05-09T11:47:49.695Z,5.05
2024-05-09T11:50:26.713Z,4.54
2024-05-09T11:52:57.395Z,5.67
2024-05-09T11:55:27.711Z,5.75
2024-05-09T11:57:55.684Z,5.60
2024-05-09T12:00:33.278Z,5.65
2024-05-09T12:03:03.984Z,5.38
2024-05-09T12:05:31.385Z,5.02
2024-05-09T12:07:58.476Z,4.76
2024-05-09T12:10:32.701Z,4.98
2024-05-09T12:13:04.168Z,5.15
2024-05-09T12:15:33.102Z,4.87
2024-05-09T12:18:02.939Z,4.83
2024-05-09T12:20:36.798Z,5.13
2024-05-09T12:23:06.472Z,4.88
2024-05-09T12:25:33.652Z,4.47
2024-05-09T12:28:00.891Z,4.56
2024-05-09T12:30:35.831Z,4.03
2024-05-09T12:33:06.163Z,4.43
2024-05-09T12:35:33.394Z,4.39
2024-05-09T12:38:00.434Z,4.12
2024-05-09T12:40:35.474Z,4.53
2024-05-09T12:43:05.288Z,4.60
2024-05-09T12:45:32.572Z,4.15
2024-05-09T12:47:59.779Z,4.47
2024-05-09T12:50:32.456Z,4.01
2024-05-09T12:53:01.933Z,3.88
2024-05-09T12:55:34.000Z,4.10
2024-05-09T12:58:08.079Z,3.73
2024-05-09T13:00:35.955Z,3.70
2024-05-09T13:03:03.365Z,3.98
2024-05-09T13:05:30.600Z,4.13
2024-05-09T13:07:57.697Z,3.95
2024-05-09T13:10:31.706Z,3.70
2024-05-09T13:13:00.916Z,3.50
2024-05-09T13:15:28.674Z,3.05
2024-05-09T13:17:59.008Z,3.00
2024-05-09T13:20:33.175Z,3.56
2024-05-09T13:23:03.007Z,3.56
2024-05-09T13:25:30.567Z,3.36
2024-05-09T13:27:58.551Z,3.04
2024-05-09T13:30:35.433Z,3.09
2024-05-09T13:33:08.287Z,3.41
2024-05-09T13:35:36.146Z,2.91
2024-05-09T13:38:03.926Z,2.79
2024-05-09T13:40:34.613Z,2.76
2024-05-09T13:43:03.391Z,2.69
2024-05-09T13:45:30.716Z,2.76
2024-05-09T13:47:57.954Z,3.00
2024-05-09T13:50:33.195Z,3.16
2024-05-09T13:53:02.963Z,3.15
2024-05-09T13:55:29.988Z,3.36
2024-05-09T13:57:57.012Z,3.30
2024-05-09T14:02:53.961Z,3.74
2024-05-09T14:05:21.255Z,3.27
2024-05-09T14:07:48.379Z,3.17
2024-05-09T14:10:22.946Z,3.54
2024-05-09T14:12:55.740Z,3.34
2024-05-09T14:15:22.770Z,3.05
2024-05-09T14:17:49.799Z,3.60
2024-05-09T14:20:27.259Z,3.29
2024-05-09T14:22:57.795Z,3.64
2024-05-09T14:25:24.789Z,3.06
2024-05-09T14:27:51.995Z,3.26
2024-05-09T14:30:26.404Z,3.20
2024-05-09T14:33:01.444Z,2.97
2024-05-09T14:35:28.754Z,3.11
2024-05-09T14:37:55.687Z,3.18
2024-05-09T14:40:35.790Z,3.40
2024-05-09T14:43:08.231Z,3.34
2024-05-09T14:45:35.527Z,3.10
2024-05-09T14:48:03.302Z,3.55
2024-05-09T14:50:36.179Z,3.43
2024-05-09T14:53:06.677Z,3.63
2024-05-09T14:55:34.299Z,3.22
2024-05-09T14:58:01.342Z,4.05
2024-05-09T15:00:33.310Z,4.22
2024-05-09T15:03:03.267Z,4.05
2024-05-09T15:05:30.503Z,3.92
2024-05-09T15:07:57.664Z,3.89
2024-05-09T15:10:33.677Z,3.77
2024-05-09T15:13:03.236Z,4.14
2024-05-09T15:15:30.589Z,3.80
2024-05-09T15:17:57.767Z,3.67
2024-05-09T15:20:32.988Z,3.44
2024-05-09T15:23:03.056Z,3.64
2024-05-09T15:25:30.620Z,3.25
2024-05-09T15:27:58.276Z,3.75
2024-05-09T15:32:55.370Z,4.05
2024-05-09T15:35:22.392Z,3.78
2024-05-09T15:37:49.351Z,3.74
2024-05-09T15:40:26.098Z,3.65
2024-05-09T15:43:02.341Z,3.45
2024-05-09T15:45:29.756Z,3.60
2024-05-09T15:47:57.118Z,3.83
2024-05-09T15:50:32.699Z,3.65
2024-05-09T15:53:05.257Z,3.65
2024-05-09T15:55:32.242Z,3.48
2024-05-09T15:57:59.370Z,3.49
2024-05-09T16:00:36.024Z,3.44
2024-05-09T16:03:06.731Z,3.80
2024-05-09T16:05:34.007Z,3.96
2024-05-09T16:08:01.077Z,3.49
2024-05-09T16:10:32.619Z,3.63
2024-05-09T16:13:01.583Z,3.25
2024-05-09T16:15:29.019Z,3.37
2024-05-09T16:17:56.520Z,3.67
2024-05-09T16:22:53.507Z,3.77
2024-05-09T16:25:20.517Z,3.79
2024-05-09T16:27:47.622Z,3.96
2024-05-09T16:30:24.689Z,3.65
2024-05-09T16:32:58.777Z,3.52
2024-05-09T16:35:25.858Z,3.68
2024-05-09T16:37:53.099Z,3.54
2024-05-09T16:40:29.338Z,3.83
2024-05-09T16:43:01.710Z,3.67
2024-05-09T16:45:28.827Z,3.54
2024-05-09T16:47:55.920Z,3.44
2024-05-09T16:50:29.266Z,3.76
2024-05-09T16:53:00.228Z,3.41
2024-05-09T16:55:27.725Z,3.54
2024-05-09T16:57:55.027Z,3.17
2024-05-09T17:00:31.483Z,3.38
2024-05-09T17:03:07.284Z,3.69
2024-05-09T17:05:35.376Z,3.56
2024-05-09T17:08:02.860Z,3.86
2024-05-09T17:10:33.578Z,3.97
2024-05-09T17:13:02.536Z,3.79
2024-05-09T17:15:30.074Z,3.82
2024-05-09T17:17:56.866Z,3.73
2024-05-09T17:20:31.324Z,4.08
2024-05-09T17:23:00.959Z,4.05
2024-05-09T17:25:27.576Z,4.10
2024-05-09T17:27:54.331Z,4.15
2024-05-09T17:30:28.853Z,3.62
2024-05-09T17:33:01.229Z,3.84
2024-05-09T17:35:28.063Z,3.99
2024-05-09T17:37:54.657Z,4.18
2024-05-09T17:40:30.103Z,4.25
2024-05-09T17:43:00.227Z,4.63
2024-05-09T17:45:26.994Z,4.25
2024-05-09T17:47:53.734Z,4.27
2024-05-09T17:50:27.467Z,4.19
2024-05-09T17:53:00.693Z,4.20
2024-05-09T17:55:27.503Z,4.01
2024-05-09T17:57:54.359Z,3.78
2024-05-09T18:00:29.291Z,3.80
2024-05-09T18:03:03.810Z,3.84
2024-05-09T18:05:30.700Z,4.03
2024-05-09T18:07:57.468Z,4.03
2024-05-09T18:10:30.141Z,4.44
2024-05-09T18:13:02.659Z,4.42
2024-05-09T18:15:29.310Z,4.24
2024-05-09T18:17:56.439Z,4.21
2024-05-09T18:20:32.975Z,4.56
2024-05-09T18:23:08.299Z,4.40
2024-05-09T18:25:35.293Z,4.17
2024-05-09T18:28:02.421Z,3.78
2024-05-09T18:30:34.712Z,3.80
2024-05-09T18:33:03.831Z,3.48
2024-05-09T18:35:31.143Z,4.06
2024-05-09T18:37:58.142Z,3.80
2024-05-09T18:40:32.512Z,3.62
2024-05-09T18:43:03.094Z,3.66
2024-05-09T18:45:30.867Z,3.85
2024-05-09T18:47:58.232Z,3.93
2024-05-09T18:50:34.220Z,3.94
2024-05-09T18:53:04.821Z,4.11
2024-05-09T18:55:31.780Z,3.91
2024-05-09T18:57:58.761Z,3.93
2024-05-09T19:00:34.006Z,3.71
2024-05-09T19:03:05.496Z,3.89
2024-05-09T19:05:33.539Z,3.79
2024-05-09T19:08:00.740Z,4.24
2024-05-09T19:10:33.806Z,3.97
2024-05-09T19:13:05.733Z,3.70
2024-05-09T19:15:36.444Z,4.11
2024-05-09T19:18:03.662Z,4.08
2024-05-09T19:20:34.507Z,4.21
2024-05-09T19:23:03.189Z,4.22
2024-05-09T19:25:29.978Z,3.93
2024-05-09T19:27:56.637Z,4.11
2024-05-09T19:30:30.475Z,4.03
